Limoges, France

4:42 PM CEST on July 28, 2016 (GMT +0200)
Route des Francines | | Change Station

Elev 1263 ft 45.88 °N, 1.16 °E | Updated 8 minutes ago

Mostly Cloudy
Mostly Cloudy
74.8 °F
Feels Like 77 °F
N
2.5
Wind Variable Wind from WNW
Gusts 7.5 mph

Today
High -- | Low -- °F
--% Chance of Precip.
Yesterday
High -- | Low -- °F
Precip. -- in
Pressure 30.12 in
Visibility 6.2 miles
Clouds Mostly Cloudy 3100 ft
Mostly Cloudy 3900 ft
Mostly Cloudy 4700 ft
Heat Index 77 °F
Dew Point 64 °F
Humidity 68%
Rainfall 0.02 in
Snow Depth Not available.
6:33 AM 9:29 PM
Waning Crescent, 31% visible
METAR LFBL 281430Z AUTO 26008KT 230V300 9999 BKN031 BKN039 BKN047 24/16 Q1020 NOSIG
Pressure 30.12 in
Visibility 6.2 miles
Clouds Mostly Cloudy 3100 ft
Mostly Cloudy 3900 ft
Mostly Cloudy 4700 ft
Heat Index 77 °F
Dew Point 64 °F
Humidity 68%
Rainfall 0.02 in
Snow Depth Not available.
6:33 AM 9:29 PM
Waning Crescent, 31% visible
METAR LFBL 281430Z AUTO 26008KT 230V300 9999 BKN031 BKN039 BKN047 24/16 Q1020 NOSIG

10-Day Weather Forecast

×

Almanac

Astronomy

Jul. 28, 2016 Rise Set
Actual Time
Civil Twilight
Nautical Twilight
Astronomical Twilight
Moon
Length of Visible Light
Length of Day
Tomorrow will be .
, % of the Moon is Illuminated

Today's Extremes

Country Highs Country Lows

Community

WunderPhotos

Upload Photos

1,928,117 photos uploaded!

WunderBlog® & News

Nearby

Air Quality

  Air Quality AQ Index Pollutant
Not available.

Snow Depth

Station Depth Elevation

Earthquake Activity

City Distance Mag. Time & Date
Minimum magnitude displayed is 2.5.

Coastal Water Temperatures

Place Temperature

Stations

Nearby Weather Stations

Station Location Temp. Windchill Dew Point Humidity Wind Precip. Elev Updated Type